sensor_id;sensor_type;location;lat;lon;timestamp;pressure;altitude;pressure_sealevel;temperature;humidity
12349;BME280;5974;42.710;27.258;2024-03-02T00:01:23;99924.72;;;8.31;100.00
12349;BME280;5974;42.710;27.258;2024-03-02T00:03:50;99920.63;;;8.73;100.00
12349;BME280;5974;42.710;27.258;2024-03-02T00:06:20;99915.88;;;8.84;100.00
12349;BME280;5974;42.710;27.258;2024-03-02T00:08:47;99898.69;;;8.55;100.00
12349;BME280;5974;42.710;27.258;2024-03-02T00:11:14;99906.78;;;8.71;100.00
12349;BME280;5974;42.710;27.258;2024-03-02T00:13:41;99911.91;;;8.25;100.00
12349;BME280;5974;42.710;27.258;2024-03-02T00:16:08;99919.25;;;7.87;100.00
12349;BME280;5974;42.710;27.258;2024-03-02T00:18:36;99916.13;;;8.29;100.00
12349;BME280;5974;42.710;27.258;2024-03-02T00:21:03;99915.97;;;8.58;100.00
12349;BME280;5974;42.710;27.258;2024-03-02T00:23:36;99914.88;;;7.88;100.00
12349;BME280;5974;42.710;27.258;2024-03-02T00:26:04;99928.81;;;7.87;100.00
12349;BME280;5974;42.710;27.258;2024-03-02T00:28:33;99906.78;;;8.22;100.00
12349;BME280;5974;42.710;27.258;2024-03-02T00:31:03;99908.81;;;8.40;100.00
12349;BME280;5974;42.710;27.258;2024-03-02T00:33:32;99922.00;;;8.58;100.00
12349;BME280;5974;42.710;27.258;2024-03-02T00:35:59;99919.25;;;7.87;100.00
12349;BME280;5974;42.710;27.258;2024-03-02T00:38:26;99910.34;;;7.94;100.00
12349;BME280;5974;42.710;27.258;2024-03-02T00:40:56;99894.28;;;8.06;100.00
12349;BME280;5974;42.710;27.258;2024-03-02T00:43:47;99891.94;;;7.74;100.00
12349;BME280;5974;42.710;27.258;2024-03-02T00:46:18;99899.00;;;7.69;100.00
12349;BME280;5974;42.710;27.258;2024-03-02T00:48:50;99903.97;;;7.50;100.00
12349;BME280;5974;42.710;27.258;2024-03-02T00:51:17;99901.84;;;7.89;100.00
12349;BME280;5974;42.710;27.258;2024-03-02T00:53:44;99899.31;;;7.60;100.00
12349;BME280;5974;42.710;27.258;2024-03-02T00:56:13;99875.50;;;7.72;100.00
12349;BME280;5974;42.710;27.258;2024-03-02T00:58:40;99862.78;;;7.63;100.00
12349;BME280;5974;42.710;27.258;2024-03-02T01:01:07;99866.91;;;7.44;100.00
12349;BME280;5974;42.710;27.258;2024-03-02T01:03:33;99860.25;;;7.61;100.00
12349;BME280;5974;42.710;27.258;2024-03-02T01:06:00;99870.59;;;7.37;100.00
12349;BME280;5974;42.710;27.258;2024-03-02T01:08:27;99887.72;;;7.70;100.00
12349;BME280;5974;42.710;27.258;2024-03-02T01:10:54;99886.38;;;7.31;100.00
12349;BME280;5974;42.710;27.258;2024-03-02T01:13:23;99895.56;;;7.42;100.00
12349;BME280;5974;42.710;27.258;2024-03-02T01:15:50;99887.13;;;7.62;100.00
12349;BME280;5974;42.710;27.258;2024-03-02T01:18:17;99888.66;;;7.14;100.00
12349;BME280;5974;42.710;27.258;2024-03-02T01:20:44;99883.72;;;6.46;100.00
12349;BME280;5974;42.710;27.258;2024-03-02T01:23:11;99877.50;;;6.51;100.00
12349;BME280;5974;42.710;27.258;2024-03-02T01:25:38;99890.66;;;6.75;100.00
12349;BME280;5974;42.710;27.258;2024-03-02T01:28:05;99877.50;;;6.51;100.00
12349;BME280;5974;42.710;27.258;2024-03-02T01:30:33;99865.78;;;6.97;100.00
12349;BME280;5974;42.710;27.258;2024-03-02T01:33:00;99865.41;;;7.37;100.00
12349;BME280;5974;42.710;27.258;2024-03-02T01:35:27;99861.03;;;7.63;100.00
12349;BME280;5974;42.710;27.258;2024-03-02T01:37:54;99849.72;;;7.91;100.00
12349;BME280;5974;42.710;27.258;2024-03-02T01:40:21;99846.44;;;7.86;100.00
12349;BME280;5974;42.710;27.258;2024-03-02T01:42:51;99838.41;;;7.92;100.00
12349;BME280;5974;42.710;27.258;2024-03-02T01:45:18;99837.63;;;8.14;100.00
12349;BME280;5974;42.710;27.258;2024-03-02T01:47:46;99832.69;;;8.32;100.00
12349;BME280;5974;42.710;27.258;2024-03-02T01:50:13;99821.81;;;8.19;100.00
12349;BME280;5974;42.710;27.258;2024-03-02T01:52:41;99829.00;;;8.37;100.00
12349;BME280;5974;42.710;27.258;2024-03-02T01:55:09;99821.56;;;8.51;100.00
12349;BME280;5974;42.710;27.258;2024-03-02T01:57:36;99823.34;;;8.73;100.00
12349;BME280;5974;42.710;27.258;2024-03-02T02:00:03;99829.06;;;8.82;100.00
12349;BME280;5974;42.710;27.258;2024-03-02T02:02:31;99830.41;;;8.92;100.00
12349;BME280;5974;42.710;27.258;2024-03-02T02:04:59;99816.59;;;8.90;100.00
12349;BME280;5974;42.710;27.258;2024-03-02T02:07:25;99811.38;;;8.45;100.00
12349;BME280;5974;42.710;27.258;2024-03-02T02:09:52;99820.69;;;8.51;100.00
12349;BME280;5974;42.710;27.258;2024-03-02T02:12:19;99829.50;;;8.24;100.00
12349;BME280;5974;42.710;27.258;2024-03-02T02:14:49;99842.63;;;8.45;100.00
12349;BME280;5974;42.710;27.258;2024-03-02T02:17:16;99834.53;;;8.76;100.00
12349;BME280;5974;42.710;27.258;2024-03-02T02:19:43;99839.88;;;8.95;100.00
12349;BME280;5974;42.710;27.258;2024-03-02T02:22:11;99843.19;;;8.98;100.00
12349;BME280;5974;42.710;27.258;2024-03-02T02:24:39;99840.72;;;8.95;100.00
12349;BME280;5974;42.710;27.258;2024-03-02T02:27:06;99843.41;;;8.47;100.00
12349;BME280;5974;42.710;27.258;2024-03-02T02:29:33;99855.63;;;7.70;100.00
12349;BME280;5974;42.710;27.258;2024-03-02T02:32:00;99837.72;;;8.11;100.00
12349;BME280;5974;42.710;27.258;2024-03-02T02:34:27;99860.28;;;8.84;100.00
12349;BME280;5974;42.710;27.258;2024-03-02T02:36:54;99857.09;;;9.20;100.00
12349;BME280;5974;42.710;27.258;2024-03-02T02:39:23;99840.06;;;9.34;100.00
12349;BME280;5974;42.710;27.258;2024-03-02T02:41:49;99843.50;;;8.19;100.00
12349;BME280;5974;42.710;27.258;2024-03-02T02:44:16;99837.41;;;7.71;100.00
12349;BME280;5974;42.710;27.258;2024-03-02T02:46:43;99834.31;;;7.32;100.00
12349;BME280;5974;42.710;27.258;2024-03-02T02:49:09;99845.94;;;7.48;100.00
12349;BME280;5974;42.710;27.258;2024-03-02T02:51:36;99859.59;;;7.55;100.00
12349;BME280;5974;42.710;27.258;2024-03-02T02:54:03;99861.16;;;7.34;100.00
12349;BME280;5974;42.710;27.258;2024-03-02T02:56:31;99866.63;;;7.53;100.00
12349;BME280;5974;42.710;27.258;2024-03-02T02:58:58;99857.09;;;8.29;100.00
12349;BME280;5974;42.710;27.258;2024-03-02T03:01:25;99863.09;;;7.80;100.00
12349;BME280;5974;42.710;27.258;2024-03-02T03:03:52;99863.06;;;8.06;100.00
12349;BME280;5974;42.710;27.258;2024-03-02T03:06:19;99867.25;;;8.60;100.00
12349;BME280;5974;42.710;27.258;2024-03-02T03:08:45;99857.44;;;8.90;100.00
12349;BME280;5974;42.710;27.258;2024-03-02T03:11:12;99854.47;;;8.99;100.00
12349;BME280;5974;42.710;27.258;2024-03-02T03:13:41;99851.13;;;9.18;100.00
12349;BME280;5974;42.710;27.258;2024-03-02T03:16:08;99842.41;;;8.27;100.00
12349;BME280;5974;42.710;27.258;2024-03-02T03:18:35;99842.38;;;8.75;100.00
12349;BME280;5974;42.710;27.258;2024-03-02T03:21:01;99840.31;;;9.27;100.00
12349;BME280;5974;42.710;27.258;2024-03-02T03:23:27;99842.13;;;9.47;100.00
12349;BME280;5974;42.710;27.258;2024-03-02T03:25:54;99838.47;;;9.51;100.00
12349;BME280;5974;42.710;27.258;2024-03-02T03:28:21;99833.13;;;9.54;100.00
12349;BME280;5974;42.710;27.258;2024-03-02T03:30:49;99830.75;;;9.70;100.00
12349;BME280;5974;42.710;27.258;2024-03-02T03:33:16;99837.81;;;9.68;100.00
12349;BME280;5974;42.710;27.258;2024-03-02T03:35:42;99848.84;;;8.64;100.00
12349;BME280;5974;42.710;27.258;2024-03-02T03:38:09;99854.91;;;8.88;100.00
12349;BME280;5974;42.710;27.258;2024-03-02T03:40:36;99853.66;;;9.42;100.00
12349;BME280;5974;42.710;27.258;2024-03-02T03:43:03;99848.50;;;9.62;100.00
12349;BME280;5974;42.710;27.258;2024-03-02T03:45:29;99857.06;;;9.22;100.00
12349;BME280;5974;42.710;27.258;2024-03-02T03:47:57;99871.28;;;8.45;100.00
12349;BME280;5974;42.710;27.258;2024-03-02T03:50:24;99864.81;;;9.23;100.00
12349;BME280;5974;42.710;27.258;2024-03-02T03:52:51;99843.16;;;9.65;100.00
12349;BME280;5974;42.710;27.258;2024-03-02T03:55:18;99849.56;;;9.78;100.00
12349;BME280;5974;42.710;27.258;2024-03-02T03:57:44;99855.03;;;9.72;100.00
12349;BME280;5974;42.710;27.258;2024-03-02T04:00:11;99838.72;;;10.07;100.00
12349;BME280;5974;42.710;27.258;2024-03-02T04:02:38;99853.06;;;9.13;100.00
12349;BME280;5974;42.710;27.258;2024-03-02T04:05:07;99862.03;;;8.83;100.00
12349;BME280;5974;42.710;27.258;2024-03-02T04:07:36;99852.59;;;9.67;100.00
12349;BME280;5974;42.710;27.258;2024-03-02T04:10:07;99857.00;;;9.87;100.00
12349;BME280;5974;42.710;27.258;2024-03-02T04:12:35;99838.66;;;9.89;100.00
12349;BME280;5974;42.710;27.258;2024-03-02T04:15:04;99833.59;;;10.06;100.00
12349;BME280;5974;42.710;27.258;2024-03-02T04:17:32;99824.50;;;9.74;100.00
12349;BME280;5974;42.710;27.258;2024-03-02T04:20:01;99812.63;;;9.45;100.00
12349;BME280;5974;42.710;27.258;2024-03-02T04:22:33;99820.78;;;9.16;100.00
12349;BME280;5974;42.710;27.258;2024-03-02T04:25:00;99813.91;;;9.35;100.00
12349;BME280;5974;42.710;27.258;2024-03-02T04:27:26;99826.69;;;9.63;100.00
12349;BME280;5974;42.710;27.258;2024-03-02T04:29:53;99838.03;;;8.75;100.00
12349;BME280;5974;42.710;27.258;2024-03-02T04:32:20;99848.16;;;8.11;100.00
12349;BME280;5974;42.710;27.258;2024-03-02T04:34:46;99847.88;;;8.90;100.00
12349;BME280;5974;42.710;27.258;2024-03-02T04:37:13;99846.44;;;9.26;100.00
12349;BME280;5974;42.710;27.258;2024-03-02T04:39:42;99851.78;;;9.45;100.00
12349;BME280;5974;42.710;27.258;2024-03-02T04:42:08;99842.63;;;9.77;100.00
12349;BME280;5974;42.710;27.258;2024-03-02T04:44:35;99836.31;;;9.82;100.00
12349;BME280;5974;42.710;27.258;2024-03-02T04:47:03;99834.69;;;9.16;100.00
12349;BME280;5974;42.710;27.258;2024-03-02T04:49:30;99816.53;;;9.35;100.00
12349;BME280;5974;42.710;27.258;2024-03-02T04:51:57;99826.09;;;9.97;100.00
12349;BME280;5974;42.710;27.258;2024-03-02T04:54:24;99817.72;;;9.90;100.00
12349;BME280;5974;42.710;27.258;2024-03-02T04:56:53;99822.91;;;10.10;100.00
12349;BME280;5974;42.710;27.258;2024-03-02T04:59:19;99836.78;;;10.32;100.00
12349;BME280;5974;42.710;27.258;2024-03-02T05:01:46;99836.56;;;10.37;100.00
12349;BME280;5974;42.710;27.258;2024-03-02T05:04:13;99826.59;;;9.86;100.00
12349;BME280;5974;42.710;27.258;2024-03-02T05:06:40;99847.09;;;10.15;100.00
12349;BME280;5974;42.710;27.258;2024-03-02T05:09:07;99845.97;;;10.01;100.00
12349;BME280;5974;42.710;27.258;2024-03-02T05:11:34;99843.97;;;10.66;100.00
12349;BME280;5974;42.710;27.258;2024-03-02T05:14:20;99839.66;;;10.84;100.00
12349;BME280;5974;42.710;27.258;2024-03-02T05:16:46;99834.72;;;10.97;100.00
12349;BME280;5974;42.710;27.258;2024-03-02T05:19:13;99831.03;;;11.01;100.00
12349;BME280;5974;42.710;27.258;2024-03-02T05:21:40;99840.28;;;10.89;100.00
12349;BME280;5974;42.710;27.258;2024-03-02T05:24:07;99840.97;;;10.74;100.00
12349;BME280;5974;42.710;27.258;2024-03-02T05:26:33;99841.69;;;10.96;100.00
12349;BME280;5974;42.710;27.258;2024-03-02T05:29:00;99842.47;;;11.17;100.00
12349;BME280;5974;42.710;27.258;2024-03-02T05:31:29;99840.75;;;11.34;100.00
12349;BME280;5974;42.710;27.258;2024-03-02T05:33:56;99840.22;;;11.45;100.00
12349;BME280;5974;42.710;27.258;2024-03-02T05:36:23;99841.34;;;11.22;100.00
12349;BME280;5974;42.710;27.258;2024-03-02T05:38:50;99841.06;;;11.10;100.00
12349;BME280;5974;42.710;27.258;2024-03-02T05:41:17;99833.41;;;11.05;100.00
12349;BME280;5974;42.710;27.258;2024-03-02T05:43:43;99834.41;;;10.47;100.00
12349;BME280;5974;42.710;27.258;2024-03-02T05:46:10;99822.16;;;10.67;100.00
12349;BME280;5974;42.710;27.258;2024-03-02T05:48:38;99827.63;;;10.22;100.00
12349;BME280;5974;42.710;27.258;2024-03-02T05:51:05;99825.44;;;10.13;100.00
12349;BME280;5974;42.710;27.258;2024-03-02T05:53:32;99822.53;;;10.40;100.00
12349;BME280;5974;42.710;27.258;2024-03-02T05:55:59;99826.59;;;10.26;100.00
12349;BME280;5974;42.710;27.258;2024-03-02T05:58:25;99827.25;;;10.31;100.00
12349;BME280;5974;42.710;27.258;2024-03-02T06:01:03;99826.00;;;10.59;100.00
12349;BME280;5974;42.710;27.258;2024-03-02T06:03:31;99824.28;;;11.14;100.00
12349;BME280;5974;42.710;27.258;2024-03-02T06:05:59;99819.25;;;11.28;100.00
12349;BME280;5974;42.710;27.258;2024-03-02T06:08:26;99816.78;;;11.25;100.00
12349;BME280;5974;42.710;27.258;2024-03-02T06:10:52;99814.19;;;11.42;100.00
12349;BME280;5974;42.710;27.258;2024-03-02T06:13:19;99803.72;;;11.25;100.00
12349;BME280;5974;42.710;27.258;2024-03-02T06:15:46;99801.56;;;11.33;100.00
12349;BME280;5974;42.710;27.258;2024-03-02T06:18:13;99808.50;;;10.79;100.00
12349;BME280;5974;42.710;27.258;2024-03-02T06:20:39;99795.78;;;10.72;100.00
12349;BME280;5974;42.710;27.258;2024-03-02T06:23:08;99801.25;;;10.08;100.00
12349;BME280;5974;42.710;27.258;2024-03-02T06:25:34;99805.91;;;10.41;100.00
12349;BME280;5974;42.710;27.258;2024-03-02T06:28:01;99802.88;;;10.31;100.00
12349;BME280;5974;42.710;27.258;2024-03-02T06:30:29;99798.75;;;10.25;100.00
12349;BME280;5974;42.710;27.258;2024-03-02T06:32:56;99800.88;;;10.17;100.00
12349;BME280;5974;42.710;27.258;2024-03-02T06:35:23;99795.31;;;10.25;100.00
12349;BME280;5974;42.710;27.258;2024-03-02T06:37:49;99794.56;;;10.60;100.00
12349;BME280;5974;42.710;27.258;2024-03-02T06:40:17;99802.13;;;10.48;100.00
12349;BME280;5974;42.710;27.258;2024-03-02T06:42:44;99797.19;;;10.60;100.00
12349;BME280;5974;42.710;27.258;2024-03-02T06:45:11;99801.00;;;10.53;100.00
12349;BME280;5974;42.710;27.258;2024-03-02T06:47:38;99795.84;;;10.52;100.00
12349;BME280;5974;42.710;27.258;2024-03-02T06:50:05;99792.00;;;10.40;100.00
12349;BME280;5974;42.710;27.258;2024-03-02T06:52:32;99791.31;;;10.74;100.00
12349;BME280;5974;42.710;27.258;2024-03-02T06:54:59;99785.47;;;11.05;100.00
12349;BME280;5974;42.710;27.258;2024-03-02T06:57:27;99808.13;;;10.87;100.00
12349;BME280;5974;42.710;27.258;2024-03-02T06:59:54;99799.56;;;11.02;100.00
12349;BME280;5974;42.710;27.258;2024-03-02T07:02:23;99814.91;;;11.46;100.00
12349;BME280;5974;42.710;27.258;2024-03-02T07:04:52;99814.88;;;11.99;100.00
12349;BME280;5974;42.710;27.258;2024-03-02T07:07:19;99813.75;;;12.20;100.00
12349;BME280;5974;42.710;27.258;2024-03-02T07:09:46;99819.88;;;11.86;100.00
12349;BME280;5974;42.710;27.258;2024-03-02T07:12:12;99818.03;;;11.88;100.00
12349;BME280;5974;42.710;27.258;2024-03-02T07:14:40;99824.78;;;12.09;100.00
12349;BME280;5974;42.710;27.258;2024-03-02T07:17:25;99825.47;;;11.44;100.00
12349;BME280;5974;42.710;27.258;2024-03-02T07:19:52;99817.56;;;11.27;100.00
12349;BME280;5974;42.710;27.258;2024-03-02T07:22:19;99830.75;;;11.60;100.00
12349;BME280;5974;42.710;27.258;2024-03-02T07:24:45;99832.31;;;11.64;100.00
12349;BME280;5974;42.710;27.258;2024-03-02T07:27:12;99827.16;;;11.62;100.00
12349;BME280;5974;42.710;27.258;2024-03-02T07:29:41;99825.31;;;11.47;100.00
12349;BME280;5974;42.710;27.258;2024-03-02T07:32:09;99819.69;;;11.55;100.00
12349;BME280;5974;42.710;27.258;2024-03-02T07:34:36;99825.63;;;11.58;100.00
12349;BME280;5974;42.710;27.258;2024-03-02T07:37:04;99829.44;;;11.34;100.00
12349;BME280;5974;42.710;27.258;2024-03-02T07:39:31;99831.75;;;11.57;100.00
12349;BME280;5974;42.710;27.258;2024-03-02T07:41:58;99822.69;;;11.47;100.00
12349;BME280;5974;42.710;27.258;2024-03-02T07:44:25;99826.81;;;11.70;100.00
12349;BME280;5974;42.710;27.258;2024-03-02T07:46:54;99828.97;;;11.79;100.00
12349;BME280;5974;42.710;27.258;2024-03-02T07:49:21;99824.94;;;12.06;100.00
12349;BME280;5974;42.710;27.258;2024-03-02T07:51:47;99820.16;;;11.97;100.00
12349;BME280;5974;42.710;27.258;2024-03-02T07:54:14;99819.25;;;11.98;100.00
12349;BME280;5974;42.710;27.258;2024-03-02T07:56:41;99806.34;;;11.78;100.00
12349;BME280;5974;42.710;27.258;2024-03-02T07:59:08;99824.94;;;12.06;100.00
12349;BME280;5974;42.710;27.258;2024-03-02T08:01:35;99832.97;;;12.20;100.00
12349;BME280;5974;42.710;27.258;2024-03-02T08:04:03;99834.97;;;12.48;100.00
12349;BME280;5974;42.710;27.258;2024-03-02T08:06:31;99837.25;;;12.38;100.00
12349;BME280;5974;42.710;27.258;2024-03-02T08:08:58;99831.56;;;12.30;100.00
12349;BME280;5974;42.710;27.258;2024-03-02T08:11:26;99825.84;;;12.39;100.00
12349;BME280;5974;42.710;27.258;2024-03-02T08:13:54;99827.06;;;12.00;100.00
12349;BME280;5974;42.710;27.258;2024-03-02T08:16:21;99830.81;;;12.11;100.00
12349;BME280;5974;42.710;27.258;2024-03-02T08:18:49;99833.81;;;12.54;100.00
12349;BME280;5974;42.710;27.258;2024-03-02T08:21:17;99829.94;;;12.61;100.00
12349;BME280;5974;42.710;27.258;2024-03-02T08:23:44;99828.78;;;12.49;100.00
12349;BME280;5974;42.710;27.258;2024-03-02T08:26:11;99831.13;;;12.86;100.00
12349;BME280;5974;42.710;27.258;2024-03-02T08:28:38;99834.78;;;12.84;100.00
12349;BME280;5974;42.710;27.258;2024-03-02T08:31:06;99839.50;;;12.77;100.00
12349;BME280;5974;42.710;27.258;2024-03-02T08:33:33;99833.41;;;12.77;100.00
12349;BME280;5974;42.710;27.258;2024-03-02T08:36:00;99838.53;;;12.47;100.00
12349;BME280;5974;42.710;27.258;2024-03-02T08:38:29;99829.84;;;12.29;100.00
12349;BME280;5974;42.710;27.258;2024-03-02T08:40:56;99833.88;;;12.36;100.00
12349;BME280;5974;42.710;27.258;2024-03-02T08:43:23;99832.41;;;12.14;100.00
12349;BME280;5974;42.710;27.258;2024-03-02T08:45:50;99830.94;;;12.25;100.00
12349;BME280;5974;42.710;27.258;2024-03-02T08:48:17;99832.47;;;12.62;100.00
12349;BME280;5974;42.710;27.258;2024-03-02T08:50:43;99831.25;;;13.00;100.00
12349;BME280;5974;42.710;27.258;2024-03-02T08:53:11;99836.81;;;12.79;100.00
12349;BME280;5974;42.710;27.258;2024-03-02T08:55:39;99838.09;;;12.39;100.00
12349;BME280;5974;42.710;27.258;2024-03-02T08:58:05;99837.75;;;12.93;100.00
12349;BME280;5974;42.710;27.258;2024-03-02T09:00:32;99845.50;;;13.12;100.00
12349;BME280;5974;42.710;27.258;2024-03-02T09:02:59;99843.31;;;12.72;100.00
12349;BME280;5974;42.710;27.258;2024-03-02T09:05:26;99850.44;;;12.70;100.00
12349;BME280;5974;42.710;27.258;2024-03-02T09:07:52;99845.75;;;12.59;100.00
12349;BME280;5974;42.710;27.258;2024-03-02T09:10:19;99840.38;;;12.45;100.00
12349;BME280;5974;42.710;27.258;2024-03-02T09:12:47;99844.34;;;12.36;100.00
12349;BME280;5974;42.710;27.258;2024-03-02T09:15:14;99840.97;;;12.00;100.00
12349;BME280;5974;42.710;27.258;2024-03-02T09:17:41;99833.25;;;12.95;100.00
12349;BME280;5974;42.710;27.258;2024-03-02T09:20:09;99833.69;;;12.88;100.00
12349;BME280;5974;42.710;27.258;2024-03-02T09:22:36;99828.34;;;12.89;100.00
12349;BME280;5974;42.710;27.258;2024-03-02T09:25:03;99819.78;;;12.05;100.00
12349;BME280;5974;42.710;27.258;2024-03-02T09:27:32;99827.50;;;11.73;100.00
12349;BME280;5974;42.710;27.258;2024-03-02T09:30:00;99822.19;;;12.42;100.00
12349;BME280;5974;42.710;27.258;2024-03-02T09:32:28;99817.88;;;12.08;100.00
12349;BME280;5974;42.710;27.258;2024-03-02T09:34:54;99824.63;;;12.12;100.00
12349;BME280;5974;42.710;27.258;2024-03-02T09:37:21;99826.44;;;12.44;100.00
12349;BME280;5974;42.710;27.258;2024-03-02T09:39:48;99805.56;;;13.52;100.00
12349;BME280;5974;42.710;27.258;2024-03-02T09:42:15;99814.06;;;14.01;100.00
12349;BME280;5974;42.710;27.258;2024-03-02T09:44:42;99805.69;;;13.95;100.00
12349;BME280;5974;42.710;27.258;2024-03-02T09:47:10;99807.06;;;13.86;100.00
12349;BME280;5974;42.710;27.258;2024-03-02T09:49:37;99794.66;;;13.74;100.00
12349;BME280;5974;42.710;27.258;2024-03-02T09:52:04;99793.69;;;14.19;100.00
12349;BME280;5974;42.710;27.258;2024-03-02T09:54:32;99780.28;;;14.24;100.00
12349;BME280;5974;42.710;27.258;2024-03-02T09:56:59;99793.69;;;13.75;100.00
12349;BME280;5974;42.710;27.258;2024-03-02T09:59:27;99791.13;;;13.89;100.00
12349;BME280;5974;42.710;27.258;2024-03-02T10:01:58;99778.03;;;13.74;100.00
12349;BME280;5974;42.710;27.258;2024-03-02T10:04:27;99784.38;;;14.28;100.00
12349;BME280;5974;42.710;27.258;2024-03-02T10:07:11;99777.25;;;14.16;100.00
12349;BME280;5974;42.710;27.258;2024-03-02T10:09:38;99779.13;;;13.55;100.00
12349;BME280;5974;42.710;27.258;2024-03-02T10:12:07;99780.00;;;13.40;100.00
12349;BME280;5974;42.710;27.258;2024-03-02T10:14:34;99775.88;;;13.21;100.00
12349;BME280;5974;42.710;27.258;2024-03-02T10:17:04;99777.47;;;13.07;100.00
12349;BME280;5974;42.710;27.258;2024-03-02T10:19:33;99776.22;;;12.99;100.00
12349;BME280;5974;42.710;27.258;2024-03-02T10:22:02;99750.66;;;13.18;100.00
12349;BME280;5974;42.710;27.258;2024-03-02T10:24:42;99771.41;;;13.52;100.00
12349;BME280;5974;42.710;27.258;2024-03-02T10:27:10;99768.75;;;13.82;100.00
12349;BME280;5974;42.710;27.258;2024-03-02T10:29:41;99766.22;;;13.21;100.00
12349;BME280;5974;42.710;27.258;2024-03-02T10:32:09;99768.00;;;13.21;100.00
12349;BME280;5974;42.710;27.258;2024-03-02T10:34:39;99764.91;;;13.74;100.00
12349;BME280;5974;42.710;27.258;2024-03-02T10:37:08;99765.75;;;13.74;100.00
12349;BME280;5974;42.710;27.258;2024-03-02T10:39:35;99765.38;;;13.50;100.00
12349;BME280;5974;42.710;27.258;2024-03-02T10:42:02;99770.06;;;13.45;100.00
12349;BME280;5974;42.710;27.258;2024-03-02T10:44:30;99757.81;;;13.60;100.00
12349;BME280;5974;42.710;27.258;2024-03-02T10:47:00;99760.56;;;13.58;100.00
12349;BME280;5974;42.710;27.258;2024-03-02T10:49:27;99758.28;;;13.52;100.00
12349;BME280;5974;42.710;27.258;2024-03-02T10:51:57;99750.44;;;13.67;100.00
12349;BME280;5974;42.710;27.258;2024-03-02T10:54:23;99750.84;;;14.03;100.00
12349;BME280;5974;42.710;27.258;2024-03-02T10:56:56;99739.69;;;14.13;100.00
12349;BME280;5974;42.710;27.258;2024-03-02T10:59:27;99742.81;;;14.48;100.00
12349;BME280;5974;42.710;27.258;2024-03-02T11:01:56;99736.41;;;14.67;100.00
12349;BME280;5974;42.710;27.258;2024-03-02T11:04:25;99741.66;;;14.10;100.00
12349;BME280;5974;42.710;27.258;2024-03-02T11:06:56;99745.91;;;13.25;100.00
12349;BME280;5974;42.710;27.258;2024-03-02T11:09:28;99736.13;;;14.43;100.00
12349;BME280;5974;42.710;27.258;2024-03-02T11:12:00;99728.50;;;14.52;100.00
12349;BME280;5974;42.710;27.258;2024-03-02T11:14:30;99726.75;;;14.80;100.00
12349;BME280;5974;42.710;27.258;2024-03-02T11:17:00;99717.78;;;14.96;100.00
12349;BME280;5974;42.710;27.258;2024-03-02T11:19:29;99723.09;;;15.09;100.00
12349;BME280;5974;42.710;27.258;2024-03-02T11:21:57;99722.50;;;15.18;100.00
12349;BME280;5974;42.710;27.258;2024-03-02T11:24:34;99713.13;;;14.87;100.00
12349;BME280;5974;42.710;27.258;2024-03-02T11:27:02;99716.22;;;14.94;100.00
12349;BME280;5974;42.710;27.258;2024-03-02T11:29:43;99720.22;;;14.99;100.00
12349;BME280;5974;42.710;27.258;2024-03-02T11:32:15;99714.06;;;15.13;100.00
12349;BME280;5974;42.710;27.258;2024-03-02T11:34:46;99720.91;;;15.15;100.00
12349;BME280;5974;42.710;27.258;2024-03-02T11:37:14;99712.78;;;15.06;100.00
12349;BME280;5974;42.710;27.258;2024-03-02T11:39:44;99704.38;;;15.26;100.00
12349;BME280;5974;42.710;27.258;2024-03-02T11:42:12;99705.81;;;15.05;100.00
12349;BME280;5974;42.710;27.258;2024-03-02T11:44:43;99710.66;;;15.38;100.00
12349;BME280;5974;42.710;27.258;2024-03-02T11:47:12;99705.22;;;15.14;100.00
12349;BME280;5974;42.710;27.258;2024-03-02T11:49:42;99701.97;;;15.23;100.00
12349;BME280;5974;42.710;27.258;2024-03-02T11:52:11;99697.06;;;15.04;100.00
12349;BME280;5974;42.710;27.258;2024-03-02T11:54:39;99688.59;;;14.87;100.00
12349;BME280;5974;42.710;27.258;2024-03-02T11:57:13;99688.47;;;15.54;100.00
12349;BME280;5974;42.710;27.258;2024-03-02T11:59:40;99685.97;;;15.65;100.00
12349;BME280;5974;42.710;27.258;2024-03-02T12:02:14;99682.91;;;15.59;100.00
12349;BME280;5974;42.710;27.258;2024-03-02T12:04:41;99683.78;;;15.45;100.00
12349;BME280;5974;42.710;27.258;2024-03-02T12:07:09;99684.25;;;15.64;100.00
12349;BME280;5974;42.710;27.258;2024-03-02T12:09:35;99690.47;;;15.63;100.00
12349;BME280;5974;42.710;27.258;2024-03-02T12:12:04;99685.94;;;15.91;99.85
12349;BME280;5974;42.710;27.258;2024-03-02T12:14:33;99683.50;;;15.75;99.21
12349;BME280;5974;42.710;27.258;2024-03-02T12:17:00;99684.06;;;15.67;99.82
12349;BME280;5974;42.710;27.258;2024-03-02T12:19:28;99687.00;;;15.50;99.50
12349;BME280;5974;42.710;27.258;2024-03-02T12:21:55;99681.66;;;15.25;99.39
12349;BME280;5974;42.710;27.258;2024-03-02T12:24:23;99686.28;;;15.99;98.60
12349;BME280;5974;42.710;27.258;2024-03-02T12:26:50;99671.94;;;16.52;95.88
12349;BME280;5974;42.710;27.258;2024-03-02T12:29:18;99667.13;;;16.33;93.78
12349;BME280;5974;42.710;27.258;2024-03-02T12:31:47;99667.13;;;16.33;95.39
12349;BME280;5974;42.710;27.258;2024-03-02T12:34:16;99666.13;;;15.85;94.97
12349;BME280;5974;42.710;27.258;2024-03-02T12:36:44;99659.03;;;15.48;97.55
12349;BME280;5974;42.710;27.258;2024-03-02T12:39:13;99673.63;;;14.87;100.00
12349;BME280;5974;42.710;27.258;2024-03-02T12:41:41;99666.53;;;15.66;98.23
12349;BME280;5974;42.710;27.258;2024-03-02T12:44:08;99671.50;;;15.84;95.74
12349;BME280;5974;42.710;27.258;2024-03-02T12:46:34;99679.84;;;15.90;96.03
12349;BME280;5974;42.710;27.258;2024-03-02T12:49:08;99668.03;;;15.70;95.74
12349;BME280;5974;42.710;27.258;2024-03-02T12:51:36;99671.28;;;14.70;98.36
12349;BME280;5974;42.710;27.258;2024-03-02T12:54:03;99674.25;;;14.23;100.00
12349;BME280;5974;42.710;27.258;2024-03-02T12:56:31;99674.69;;;14.58;100.00
12349;BME280;5974;42.710;27.258;2024-03-02T12:58:59;99678.19;;;14.44;100.00